createdAt,value
2023-01-25T00:00:01.986Z,40.50
2023-01-25T00:02:31.831Z,41.07
2023-01-25T00:04:59.201Z,39.30
2023-01-25T00:07:26.190Z,47.10
2023-01-25T00:09:53.395Z,45.57
2023-01-25T00:12:20.341Z,42.17
2023-01-25T00:14:47.521Z,43.53
2023-01-25T00:17:14.518Z,45.47
2023-01-25T00:19:41.768Z,40.07
2023-01-25T00:22:08.703Z,36.50
2023-01-25T00:24:36.061Z,40.27
2023-01-25T00:27:03.184Z,39.07
2023-01-25T00:29:32.517Z,37.77
2023-01-25T00:32:03.632Z,38.33
2023-01-25T00:34:47.840Z,37.00
2023-01-25T00:37:23.980Z,40.90
2023-01-25T00:39:52.350Z,37.33
2023-01-25T00:42:19.967Z,37.73
2023-01-25T00:44:48.361Z,38.10
2023-01-25T00:47:16.520Z,39.90
2023-01-25T00:49:45.427Z,40.07
2023-01-25T00:52:13.231Z,38.00
2023-01-25T00:54:41.783Z,41.03
2023-01-25T00:57:09.566Z,40.93
2023-01-25T00:59:37.109Z,39.63
2023-01-25T01:02:04.443Z,46.43
2023-01-25T01:04:31.941Z,42.80
2023-01-25T01:06:59.131Z,40.77
2023-01-25T01:09:26.729Z,40.13
2023-01-25T01:11:53.975Z,45.97
2023-01-25T01:14:22.665Z,42.80
2023-01-25T01:16:50.910Z,44.30
2023-01-25T01:19:19.326Z,41.90
2023-01-25T01:21:46.479Z,42.53
2023-01-25T01:24:13.737Z,48.53
2023-01-25T01:26:40.758Z,45.33
2023-01-25T01:29:08.091Z,47.13
2023-01-25T01:31:36.340Z,50.33
2023-01-25T01:34:13.461Z,51.80
2023-01-25T01:36:40.683Z,59.13
2023-01-25T01:39:07.950Z,59.60
2023-01-25T01:41:35.463Z,50.17
2023-01-25T01:44:03.518Z,58.30
2023-01-25T01:46:38.881Z,54.70
2023-01-25T01:49:15.324Z,57.53
2023-01-25T01:51:48.501Z,60.10
2023-01-25T01:54:20.626Z,58.07
2023-01-25T01:57:03.647Z,63.47
2023-01-25T01:59:39.628Z,59.37
2023-01-25T02:02:07.249Z,57.23
2023-01-25T02:04:34.617Z,62.93
2023-01-25T02:07:11.316Z,62.03
2023-01-25T02:09:39.949Z,54.87
2023-01-25T02:12:07.703Z,58.40
2023-01-25T02:14:35.094Z,52.67
2023-01-25T02:17:04.001Z,54.33
2023-01-25T02:19:46.064Z,53.17
2023-01-25T02:22:16.568Z,55.20
2023-01-25T02:24:51.144Z,49.37
2023-01-25T02:27:19.242Z,46.20
2023-01-25T02:29:47.143Z,43.47
2023-01-25T02:32:15.820Z,44.17
2023-01-25T02:34:43.097Z,34.53
2023-01-25T02:37:14.341Z,17.57
2023-01-25T02:39:42.567Z,12.67
2023-01-25T02:42:10.022Z,9.37
2023-01-25T02:44:40.357Z,12.67
2023-01-25T02:47:07.411Z,9.50
2023-01-25T02:49:36.771Z,17.47
2023-01-25T02:52:04.888Z,21.13
2023-01-25T02:54:32.168Z,21.40
2023-01-25T02:56:59.480Z,24.23
2023-01-25T02:59:31.393Z,27.43
2023-01-25T03:01:59.991Z,13.70
2023-01-25T03:04:28.706Z,11.23
2023-01-25T03:06:55.865Z,16.60
2023-01-25T03:09:23.288Z,18.37
2023-01-25T03:11:51.002Z,17.40
2023-01-25T03:14:20.847Z,15.50
2023-01-25T03:16:47.854Z,16.90
2023-01-25T03:19:16.905Z,13.43
2023-01-25T03:21:43.936Z,13.90
2023-01-25T03:24:11.512Z,14.77
2023-01-25T03:27:02.795Z,13.77
2023-01-25T03:29:38.942Z,15.87
2023-01-25T03:32:11.719Z,15.80
2023-01-25T03:34:39.419Z,14.50
2023-01-25T03:37:06.923Z,16.57
2023-01-25T03:39:35.884Z,16.47
2023-01-25T03:42:03.330Z,19.77
2023-01-25T03:44:31.957Z,17.87
2023-01-25T03:46:59.528Z,19.50
2023-01-25T03:49:28.004Z,20.70
2023-01-25T03:51:58.035Z,19.50
2023-01-25T03:54:33.857Z,19.70
2023-01-25T03:57:02.774Z,19.20
2023-01-25T03:59:32.756Z,17.90
2023-01-25T04:01:59.834Z,19.20
2023-01-25T04:04:27.337Z,19.00
2023-01-25T04:06:54.338Z,18.27
2023-01-25T04:09:24.166Z,15.33
2023-01-25T04:11:53.556Z,17.53
2023-01-25T04:14:35.106Z,15.37
2023-01-25T04:17:11.124Z,13.47
2023-01-25T04:19:58.641Z,17.63
2023-01-25T04:22:31.350Z,14.63
2023-01-25T04:24:58.626Z,14.63
2023-01-25T04:27:25.697Z,15.43
2023-01-25T04:29:59.965Z,13.33
2023-01-25T04:32:27.633Z,14.60
2023-01-25T04:34:56.209Z,14.23
2023-01-25T04:37:27.133Z,11.93
2023-01-25T04:39:58.197Z,15.73
2023-01-25T04:42:26.356Z,14.50
2023-01-25T04:44:56.337Z,16.80
2023-01-25T04:47:24.280Z,15.93
2023-01-25T04:49:51.607Z,15.73
2023-01-25T04:52:22.490Z,15.90
2023-01-25T04:54:49.937Z,15.80
2023-01-25T04:57:17.607Z,20.30
2023-01-25T04:59:50.176Z,15.23
2023-01-25T05:02:17.700Z,17.63
2023-01-25T05:04:45.472Z,19.20
2023-01-25T05:07:12.683Z,20.87
2023-01-25T05:09:40.208Z,20.70
2023-01-25T05:12:11.806Z,20.03
2023-01-25T05:14:55.143Z,21.53
2023-01-25T05:17:22.919Z,21.77
2023-01-25T05:19:50.287Z,20.73
2023-01-25T05:22:23.574Z,18.53
2023-01-25T05:24:53.830Z,23.00
2023-01-25T05:27:21.957Z,21.47
2023-01-25T05:29:55.630Z,20.90
2023-01-25T05:32:28.979Z,22.60
2023-01-25T05:34:56.675Z,26.50
2023-01-25T05:37:25.046Z,24.13
2023-01-25T05:39:58.985Z,26.30
2023-01-25T05:42:26.124Z,24.00
2023-01-25T05:44:54.597Z,27.10
2023-01-25T05:47:21.686Z,23.60
2023-01-25T05:49:49.091Z,24.13
2023-01-25T05:52:22.670Z,22.63
2023-01-25T05:54:49.912Z,23.60
2023-01-25T05:57:17.763Z,25.37
2023-01-25T05:59:45.597Z,22.33
2023-01-25T06:02:16.313Z,26.07
2023-01-25T06:04:44.696Z,24.50
2023-01-25T06:07:12.741Z,30.37
2023-01-25T06:09:40.892Z,24.73
2023-01-25T06:12:07.869Z,27.80
2023-01-25T06:14:35.179Z,24.50
2023-01-25T06:17:03.562Z,25.57
2023-01-25T06:19:50.760Z,22.90
2023-01-25T06:22:30.036Z,31.13
2023-01-25T06:24:57.358Z,26.73
2023-01-25T06:27:24.254Z,24.00
2023-01-25T06:29:51.535Z,21.07
2023-01-25T06:32:18.628Z,35.67
2023-01-25T06:34:46.504Z,26.80
2023-01-25T06:37:21.645Z,48.87
2023-01-25T06:39:48.972Z,35.23
2023-01-25T06:42:15.990Z,29.43
2023-01-25T06:44:43.302Z,34.53
2023-01-25T06:47:10.456Z,34.60
2023-01-25T06:49:37.649Z,39.10
2023-01-25T06:52:04.646Z,36.73
2023-01-25T06:54:31.986Z,31.70
2023-01-25T06:56:58.917Z,69.57
2023-01-25T06:59:26.196Z,38.07
2023-01-25T07:01:53.222Z,27.27
2023-01-25T07:04:20.549Z,43.87
2023-01-25T07:06:47.483Z,41.50
2023-01-25T07:09:15.023Z,38.60
2023-01-25T07:11:42.083Z,33.30
2023-01-25T07:14:09.318Z,36.97
2023-01-25T07:16:39.373Z,34.47
2023-01-25T07:19:07.932Z,32.90
2023-01-25T07:21:34.895Z,32.70
2023-01-25T07:24:03.612Z,36.77
2023-01-25T07:26:31.420Z,44.03
2023-01-25T07:28:59.316Z,38.30
2023-01-25T07:31:27.103Z,35.50
2023-01-25T07:33:55.913Z,35.57
2023-01-25T07:36:23.285Z,40.27
2023-01-25T07:38:54.893Z,38.57
2023-01-25T07:41:23.066Z,41.63
2023-01-25T07:43:52.450Z,37.70
2023-01-25T07:46:41.394Z,38.37
2023-01-25T07:49:09.448Z,39.33
2023-01-25T07:51:36.701Z,44.37
2023-01-25T07:54:05.180Z,44.27
2023-01-25T07:56:37.885Z,35.27
2023-01-25T07:59:08.300Z,34.67
2023-01-25T08:01:36.935Z,31.83
2023-01-25T08:04:05.565Z,30.23
2023-01-25T08:06:35.973Z,36.07
2023-01-25T08:09:06.549Z,37.77
2023-01-25T08:11:33.881Z,45.27
2023-01-25T08:14:03.029Z,38.77
2023-01-25T08:16:31.296Z,43.83
2023-01-25T08:19:00.529Z,36.57
2023-01-25T08:21:31.119Z,37.70
2023-01-25T08:23:59.950Z,30.17
2023-01-25T08:26:27.330Z,35.00
2023-01-25T08:28:55.672Z,38.80
2023-01-25T08:31:25.338Z,37.10
2023-01-25T08:33:53.368Z,38.43
2023-01-25T08:36:21.471Z,38.00
2023-01-25T08:38:48.978Z,36.47
2023-01-25T08:41:17.881Z,35.63
2023-01-25T08:43:46.090Z,36.20
2023-01-25T08:46:14.594Z,34.77
2023-01-25T08:48:41.866Z,31.87
2023-01-25T08:51:10.551Z,37.27
2023-01-25T08:53:37.941Z,33.23
2023-01-25T08:56:16.251Z,34.33
2023-01-25T08:58:46.088Z,32.73
2023-01-25T09:01:15.679Z,33.40
2023-01-25T09:03:44.662Z,35.40
2023-01-25T09:06:12.575Z,32.83
2023-01-25T09:08:39.772Z,34.70
2023-01-25T09:11:09.038Z,32.90
2023-01-25T09:13:36.468Z,37.03
2023-01-25T09:16:06.124Z,31.47
2023-01-25T09:18:35.201Z,35.47
2023-01-25T09:21:09.995Z,34.57
2023-01-25T09:23:50.339Z,35.30
2023-01-25T09:26:18.995Z,34.83
2023-01-25T09:28:51.726Z,37.67
2023-01-25T09:31:22.612Z,35.43
2023-01-25T09:34:14.234Z,35.53
2023-01-25T09:36:41.303Z,32.93
2023-01-25T09:39:12.240Z,40.67
2023-01-25T09:42:00.555Z,35.00
2023-01-25T09:44:39.737Z,35.17
2023-01-25T09:47:44.223Z,32.80
2023-01-25T09:50:49.507Z,32.63
2023-01-25T09:53:34.645Z,39.77
2023-01-25T09:56:12.681Z,34.40
2023-01-25T09:58:47.254Z,32.73
2023-01-25T10:01:38.955Z,34.30
2023-01-25T10:04:13.526Z,32.80
2023-01-25T10:06:48.732Z,35.57
2023-01-25T10:09:59.012Z,32.67
2023-01-25T10:12:27.357Z,37.10
2023-01-25T10:14:54.517Z,33.27
2023-01-25T10:17:27.316Z,35.23
2023-01-25T10:19:59.142Z,37.33
2023-01-25T10:22:37.520Z,38.10
2023-01-25T10:25:07.512Z,35.30
2023-01-25T10:27:44.424Z,36.03
2023-01-25T10:30:23.083Z,36.27
2023-01-25T10:32:56.198Z,35.57
2023-01-25T10:35:35.551Z,36.90
2023-01-25T10:38:10.860Z,37.93
2023-01-25T10:40:51.575Z,37.77
2023-01-25T10:43:20.903Z,35.17
2023-01-25T10:45:50.186Z,40.00
2023-01-25T10:48:43.244Z,38.83
2023-01-25T11:02:54.319Z,36.20
2023-01-25T11:05:33.745Z,32.23
2023-01-25T11:08:16.317Z,38.47
2023-01-25T11:10:44.978Z,40.00
2023-01-25T11:13:14.910Z,37.13
2023-01-25T11:15:46.201Z,42.00
2023-01-25T11:18:25.700Z,37.53
2023-01-25T11:21:15.010Z,40.70
2023-01-25T11:23:41.976Z,38.20
2023-01-25T11:26:17.733Z,43.33
2023-01-25T11:28:46.319Z,41.50
2023-01-25T11:31:23.306Z,43.60
2023-01-25T11:33:50.455Z,42.80
2023-01-25T11:36:23.351Z,40.03
2023-01-25T11:39:14.592Z,40.27
2023-01-25T11:41:59.689Z,48.40
2023-01-25T11:44:49.846Z,52.43
2023-01-25T11:47:54.191Z,40.33
2023-01-25T11:50:30.986Z,49.50
2023-01-25T11:53:16.650Z,44.97
2023-01-25T11:55:49.685Z,45.80
2023-01-25T11:58:19.909Z,51.47
2023-01-25T12:00:59.338Z,51.83
2023-01-25T12:03:50.891Z,48.90
2023-01-25T12:06:38.403Z,80.87
2023-01-25T12:09:26.501Z,61.33
2023-01-25T12:12:07.071Z,61.63
2023-01-25T12:14:59.529Z,68.53
2023-01-25T12:17:32.531Z,93.73
2023-01-25T12:20:24.719Z,79.10
2023-01-25T12:23:05.105Z,81.80
2023-01-25T12:25:38.697Z,82.03
2023-01-25T12:28:15.635Z,66.83
2023-01-25T12:31:04.996Z,55.43
2023-01-25T12:33:33.988Z,62.50
2023-01-25T12:36:07.236Z,54.10
2023-01-25T12:38:40.328Z,62.80
2023-01-25T12:41:41.685Z,56.23
2023-01-25T12:44:14.632Z,66.60
2023-01-25T12:46:59.996Z,72.53
2023-01-25T12:49:52.049Z,56.37
2023-01-25T12:52:38.027Z,53.93
2023-01-25T12:55:13.526Z,65.80
2023-01-25T12:57:57.842Z,55.93
2023-01-25T13:00:35.778Z,54.57
2023-01-25T13:03:44.491Z,62.17
2023-01-25T13:06:31.651Z,53.60
2023-01-25T13:09:08.203Z,51.87
2023-01-25T13:11:41.515Z,52.13
2023-01-25T13:14:18.047Z,55.50
2023-01-25T13:16:53.932Z,63.27
2023-01-25T13:19:31.872Z,58.63
2023-01-25T13:22:00.168Z,56.13
2023-01-25T13:24:29.281Z,59.00
2023-01-25T13:26:57.136Z,59.93
2023-01-25T13:29:36.037Z,61.67
2023-01-25T13:32:04.771Z,59.17
2023-01-25T13:34:34.864Z,66.13
2023-01-25T13:37:23.091Z,83.00
2023-01-25T13:39:53.155Z,72.00
2023-01-25T13:42:30.545Z,109.43
2023-01-25T13:45:18.825Z,73.13
2023-01-25T13:48:06.630Z,65.83
2023-01-25T13:50:38.118Z,64.33
2023-01-25T13:53:20.249Z,65.00
2023-01-25T13:55:58.479Z,53.27
2023-01-25T13:58:27.894Z,64.40
2023-01-25T14:01:06.454Z,64.47
2023-01-25T14:03:43.072Z,59.00
2023-01-25T14:06:18.779Z,61.33
2023-01-25T14:08:46.569Z,63.50
2023-01-25T14:11:28.387Z,58.07
2023-01-25T14:14:17.070Z,60.53
2023-01-25T14:16:45.053Z,68.83
2023-01-25T14:19:21.192Z,66.67
2023-01-25T14:21:48.403Z,87.00
2023-01-25T14:24:18.142Z,89.57
2023-01-25T14:26:47.422Z,67.90
2023-01-25T14:29:35.165Z,62.93
2023-01-25T14:32:03.139Z,66.67
2023-01-25T14:34:30.123Z,67.43
2023-01-25T14:37:17.185Z,62.37
2023-01-25T14:39:46.108Z,57.03
2023-01-25T14:42:14.386Z,64.27
2023-01-25T14:44:41.527Z,55.27
2023-01-25T14:47:30.808Z,67.53
2023-01-25T14:50:32.787Z,57.37
2023-01-25T14:53:11.902Z,56.87
2023-01-25T14:55:38.849Z,62.83
2023-01-25T14:58:08.524Z,76.97
2023-01-25T15:00:36.133Z,59.90
2023-01-25T15:03:06.485Z,56.63
2023-01-25T15:05:35.130Z,52.97
2023-01-25T15:08:08.590Z,56.40
2023-01-25T15:10:37.122Z,54.63
2023-01-25T15:13:14.019Z,57.23
2023-01-25T15:15:50.868Z,56.67
2023-01-25T15:18:53.274Z,56.00
2023-01-25T15:21:20.803Z,53.53
2023-01-25T15:23:48.797Z,51.73
2023-01-25T15:26:20.272Z,69.07
2023-01-25T15:28:48.644Z,69.67
2023-01-25T15:31:22.893Z,65.57
2023-01-25T15:33:50.222Z,52.47
2023-01-25T15:36:18.633Z,57.77
2023-01-25T15:38:46.028Z,48.87
2023-01-25T15:41:13.839Z,53.90
2023-01-25T15:43:41.336Z,54.13
2023-01-25T15:46:19.484Z,59.90
2023-01-25T15:48:47.801Z,62.87
2023-01-25T15:51:14.880Z,60.93
2023-01-25T15:53:42.355Z,54.73
2023-01-25T15:56:22.275Z,51.23
2023-01-25T15:58:52.485Z,58.87
2023-01-25T16:01:20.181Z,58.20
2023-01-25T16:03:47.484Z,67.57
2023-01-25T16:06:17.419Z,93.07
2023-01-25T16:08:44.701Z,239.30
2023-01-25T16:11:11.659Z,213.13
2023-01-25T16:13:41.102Z,82.40
2023-01-25T16:16:18.355Z,63.97
2023-01-25T16:18:45.692Z,57.37
2023-01-25T16:21:12.968Z,64.70
2023-01-25T16:23:40.613Z,59.33
2023-01-25T16:26:20.864Z,64.90
2023-01-25T16:28:48.203Z,67.37
2023-01-25T16:31:30.878Z,66.33
2023-01-25T16:34:00.101Z,93.87
2023-01-25T16:36:27.179Z,63.37
2023-01-25T16:38:54.462Z,61.60
2023-01-25T16:41:21.476Z,65.00
2023-01-25T16:43:49.457Z,60.70
2023-01-25T16:46:21.713Z,73.70
2023-01-25T16:48:51.254Z,76.07
2023-01-25T16:51:21.394Z,57.73
2023-01-25T16:53:50.348Z,60.47
2023-01-25T16:56:19.126Z,62.73
2023-01-25T16:58:47.503Z,63.53
2023-01-25T17:01:15.617Z,72.50
2023-01-25T17:03:43.305Z,88.87
2023-01-25T17:06:25.587Z,64.57
2023-01-25T17:08:55.936Z,62.83
2023-01-25T17:11:23.381Z,53.83
2023-01-25T17:13:55.888Z,60.50
2023-01-25T17:16:24.501Z,50.77
2023-01-25T17:19:00.166Z,49.37
2023-01-25T17:21:27.745Z,50.03
2023-01-25T17:23:56.812Z,56.37
2023-01-25T17:26:24.630Z,68.03
2023-01-25T17:28:52.375Z,49.30
2023-01-25T17:31:29.504Z,104.53
2023-01-25T17:33:57.270Z,77.87
2023-01-25T17:36:24.401Z,68.40
2023-01-25T17:38:53.990Z,71.40
2023-01-25T17:41:21.266Z,68.57
2023-01-25T17:43:52.816Z,143.93
2023-01-25T17:46:26.121Z,63.33
2023-01-25T17:48:53.789Z,41.13
2023-01-25T17:51:23.370Z,49.27
2023-01-25T17:53:53.034Z,59.83
2023-01-25T17:56:20.663Z,51.27
2023-01-25T17:58:47.941Z,43.03
2023-01-25T18:01:25.818Z,39.50
2023-01-25T18:03:53.862Z,44.20
2023-01-25T18:06:25.005Z,48.43
2023-01-25T18:08:57.133Z,52.60
2023-01-25T18:11:25.914Z,61.70
2023-01-25T18:13:55.894Z,55.07
2023-01-25T18:16:24.473Z,53.57
2023-01-25T18:18:53.290Z,55.27
2023-01-25T18:21:25.835Z,71.63
2023-01-25T18:23:55.843Z,119.77
2023-01-25T18:26:28.306Z,70.63
2023-01-25T18:29:03.693Z,60.87
2023-01-25T18:31:30.826Z,67.80
2023-01-25T18:33:58.626Z,79.23
2023-01-25T18:36:25.784Z,101.13
2023-01-25T18:38:55.118Z,81.97
2023-01-25T18:41:22.870Z,66.03
2023-01-25T18:43:50.350Z,57.37
2023-01-25T18:46:17.796Z,72.53
2023-01-25T18:48:47.167Z,61.90
2023-01-25T18:51:17.714Z,61.73
2023-01-25T18:53:49.290Z,65.57
2023-01-25T18:56:18.880Z,60.77
2023-01-25T18:58:46.717Z,58.33
2023-01-25T19:01:21.971Z,60.83
2023-01-25T19:03:50.899Z,137.70
2023-01-25T19:06:19.490Z,102.33
2023-01-25T19:08:53.245Z,75.97
2023-01-25T19:11:21.377Z,128.87
2023-01-25T19:13:49.624Z,99.00
2023-01-25T19:16:19.763Z,65.70
2023-01-25T19:18:50.041Z,65.90
2023-01-25T19:21:21.700Z,56.43
2023-01-25T19:23:49.752Z,365.03
2023-01-25T19:26:18.970Z,405.03
2023-01-25T19:28:47.640Z,138.20
2023-01-25T19:31:17.391Z,73.20
2023-01-25T19:33:45.506Z,81.77
2023-01-25T19:36:19.292Z,146.00
2023-01-25T19:38:48.258Z,141.07
2023-01-25T19:41:18.005Z,81.73
2023-01-25T19:43:45.789Z,70.07
2023-01-25T19:46:15.935Z,60.17
2023-01-25T19:48:44.973Z,92.13
2023-01-25T19:51:30.076Z,109.03
2023-01-25T19:54:10.722Z,81.33
2023-01-25T19:56:40.734Z,67.73
2023-01-25T19:59:11.790Z,74.30
2023-01-25T20:01:43.693Z,102.97
2023-01-25T20:04:13.672Z,114.07
2023-01-25T20:06:41.313Z,115.70
2023-01-25T20:09:12.731Z,82.60
2023-01-25T20:11:40.059Z,71.10
2023-01-25T20:14:08.060Z,60.83
2023-01-25T20:16:35.593Z,60.57
2023-01-25T20:19:04.076Z,60.53
2023-01-25T20:21:32.090Z,54.93
2023-01-25T20:24:05.778Z,62.90
2023-01-25T20:26:37.414Z,57.20
2023-01-25T20:29:06.595Z,58.97
2023-01-25T20:31:39.393Z,103.40
2023-01-25T20:34:11.307Z,79.43
2023-01-25T20:36:38.556Z,74.13
2023-01-25T20:39:08.084Z,86.30
2023-01-25T20:41:35.639Z,66.53
2023-01-25T20:44:08.348Z,57.40
2023-01-25T20:46:40.192Z,56.50
2023-01-25T20:49:15.557Z,56.87
2023-01-25T20:51:43.240Z,55.57
2023-01-25T20:54:11.088Z,56.57
2023-01-25T20:56:39.107Z,61.43
2023-01-25T20:59:06.772Z,89.60
2023-01-25T21:01:36.937Z,117.73
2023-01-25T21:04:07.145Z,68.80
2023-01-25T21:06:35.480Z,85.67
2023-01-25T21:09:03.978Z,83.87
2023-01-25T21:11:31.377Z,74.47
2023-01-25T21:13:59.666Z,138.53
2023-01-25T21:16:27.498Z,191.17
2023-01-25T21:18:57.629Z,132.97
2023-01-25T21:21:29.873Z,109.77
2023-01-25T21:24:00.107Z,188.60
2023-01-25T21:26:29.667Z,239.77
2023-01-25T21:28:58.668Z,239.47
2023-01-25T21:31:27.937Z,238.87
2023-01-25T21:33:55.706Z,293.67
2023-01-25T21:36:23.117Z,252.57
2023-01-25T21:38:51.762Z,322.40
2023-01-25T21:41:26.484Z,239.40
2023-01-25T21:44:13.677Z,206.97
2023-01-25T21:46:40.916Z,131.03
2023-01-25T21:49:28.705Z,209.13
2023-01-25T21:51:59.199Z,383.17
2023-01-25T21:54:31.743Z,332.97
2023-01-25T21:57:00.137Z,533.47
2023-01-25T21:59:27.860Z,481.00
2023-01-25T22:01:55.412Z,539.43
2023-01-25T22:04:24.450Z,404.50
2023-01-25T22:06:54.789Z,400.80
2023-01-25T22:09:22.504Z,423.40
2023-01-25T22:11:50.881Z,408.77
2023-01-25T22:14:24.482Z,283.73
2023-01-25T22:16:52.199Z,225.20
2023-01-25T22:19:19.524Z,305.20
2023-01-25T22:21:46.751Z,284.13
2023-01-25T22:24:14.399Z,205.63
2023-01-25T22:26:53.735Z,378.03
2023-01-25T22:29:20.941Z,389.20
2023-01-25T22:31:48.017Z,669.67
2023-01-25T22:34:15.265Z,551.80
2023-01-25T22:36:42.250Z,364.13
2023-01-25T22:39:12.257Z,269.07
2023-01-25T22:41:39.213Z,359.30
2023-01-25T22:44:06.776Z,209.23
2023-01-25T22:46:34.200Z,166.40
2023-01-25T22:49:02.515Z,178.07
2023-01-25T22:51:30.440Z,210.47
2023-01-25T22:53:58.912Z,186.13
2023-01-25T22:56:32.237Z,283.23
2023-01-25T22:59:00.195Z,211.90
2023-01-25T23:01:30.155Z,316.00
2023-01-25T23:03:57.945Z,399.77
2023-01-25T23:06:34.272Z,170.97
2023-01-25T23:09:04.242Z,172.97
2023-01-25T23:11:37.213Z,244.20
2023-01-25T23:14:29.474Z,313.17
2023-01-25T23:17:16.419Z,124.37
2023-01-25T23:19:43.814Z,72.43
2023-01-25T23:22:10.794Z,72.00
2023-01-25T23:24:38.084Z,59.47
2023-01-25T23:27:05.009Z,62.63
2023-01-25T23:29:32.409Z,75.53
2023-01-25T23:31:59.482Z,112.17
2023-01-25T23:34:27.995Z,94.37
2023-01-25T23:36:54.997Z,164.67
2023-01-25T23:39:23.668Z,162.30
2023-01-25T23:41:52.403Z,132.27
2023-01-25T23:44:19.748Z,166.67
2023-01-25T23:46:46.836Z,212.07
2023-01-25T23:49:14.311Z,347.97
2023-01-25T23:51:41.236Z,156.47
2023-01-25T23:54:08.673Z,95.63
2023-01-25T23:56:35.649Z,89.83
2023-01-25T23:59:03.019Z,85.73
